sensor_id;sensor_type;location;lat;lon;timestamp;P1;durP1;ratioP1;P2;durP2;ratioP2
3645;SDS011;1839;48.060;11.662;2022-07-24T05:01:52;1651.20;;;403.17;;
3645;SDS011;1839;48.060;11.662;2022-07-24T05:04:19;2266.67;;;755.10;;
3645;SDS011;1839;48.060;11.662;2022-07-24T05:06:46;2095.40;;;461.73;;
3645;SDS011;1839;48.060;11.662;2022-07-24T05:09:14;1534.00;;;422.43;;
3645;SDS011;1839;48.060;11.662;2022-07-24T05:11:41;2103.63;;;536.13;;
3645;SDS011;1839;48.060;11.662;2022-07-24T05:14:08;177.37;;;131.77;;
3645;SDS011;1839;48.060;11.662;2022-07-24T05:16:35;69.83;;;63.00;;
3645;SDS011;1839;48.060;11.662;2022-07-24T05:19:04;215.07;;;143.47;;
3645;SDS011;1839;48.060;11.662;2022-07-24T05:21:31;139.37;;;107.63;;
3645;SDS011;1839;48.060;11.662;2022-07-24T05:23:58;203.80;;;141.90;;
3645;SDS011;1839;48.060;11.662;2022-07-24T05:26:27;63.67;;;56.33;;
3645;SDS011;1839;48.060;11.662;2022-07-24T05:28:56;51.93;;;46.30;;
3645;SDS011;1839;48.060;11.662;2022-07-24T05:31:23;1091.23;;;380.93;;
3645;SDS011;1839;48.060;11.662;2022-07-24T05:33:50;172.13;;;154.43;;
3645;SDS011;1839;48.060;11.662;2022-07-24T05:36:19;474.23;;;239.47;;
3645;SDS011;1839;48.060;11.662;2022-07-24T05:38:46;683.47;;;259.87;;
3645;SDS011;1839;48.060;11.662;2022-07-24T05:41:13;209.10;;;156.07;;
3645;SDS011;1839;48.060;11.662;2022-07-24T05:43:40;539.70;;;195.30;;
3645;SDS011;1839;48.060;11.662;2022-07-24T05:46:08;380.97;;;235.10;;
3645;SDS011;1839;48.060;11.662;2022-07-24T05:48:35;178.03;;;143.13;;
3645;SDS011;1839;48.060;11.662;2022-07-24T05:51:02;234.67;;;171.40;;
3645;SDS011;1839;48.060;11.662;2022-07-24T05:53:31;84.67;;;76.87;;
3645;SDS011;1839;48.060;11.662;2022-07-24T05:55:58;136.03;;;111.23;;
3645;SDS011;1839;48.060;11.662;2022-07-24T05:58:25;104.60;;;93.17;;
3645;SDS011;1839;48.060;11.662;2022-07-24T06:00:52;248.77;;;139.23;;
3645;SDS011;1839;48.060;11.662;2022-07-24T06:03:19;2199.80;;;567.40;;
3645;SDS011;1839;48.060;11.662;2022-07-24T06:05:47;1130.53;;;327.67;;
3645;SDS011;1839;48.060;11.662;2022-07-24T06:08:14;589.73;;;204.53;;
3645;SDS011;1839;48.060;11.662;2022-07-24T06:10:43;265.43;;;159.67;;
3645;SDS011;1839;48.060;11.662;2022-07-24T06:13:10;111.10;;;79.70;;
3645;SDS011;1839;48.060;11.662;2022-07-24T06:15:37;94.13;;;72.63;;
3645;SDS011;1839;48.060;11.662;2022-07-24T06:18:04;74.33;;;66.83;;
3645;SDS011;1839;48.060;11.662;2022-07-24T06:20:31;46.90;;;34.13;;
3645;SDS011;1839;48.060;11.662;2022-07-24T06:22:59;339.73;;;192.93;;
3645;SDS011;1839;48.060;11.662;2022-07-24T06:25:26;1209.53;;;349.80;;
3645;SDS011;1839;48.060;11.662;2022-07-24T06:27:54;270.73;;;125.80;;
3645;SDS011;1839;48.060;11.662;2022-07-24T06:30:22;1202.80;;;330.97;;
3645;SDS011;1839;48.060;11.662;2022-07-24T06:32:51;148.67;;;106.13;;
3645;SDS011;1839;48.060;11.662;2022-07-24T06:35:19;485.87;;;191.07;;
3645;SDS011;1839;48.060;11.662;2022-07-24T06:37:46;114.53;;;80.07;;
3645;SDS011;1839;48.060;11.662;2022-07-24T06:40:14;84.20;;;66.17;;
3645;SDS011;1839;48.060;11.662;2022-07-24T06:42:41;38.13;;;26.27;;
3645;SDS011;1839;48.060;11.662;2022-07-24T06:45:10;35.80;;;24.30;;
3645;SDS011;1839;48.060;11.662;2022-07-24T06:47:37;39.63;;;28.50;;
3645;SDS011;1839;48.060;11.662;2022-07-24T06:50:05;29.07;;;14.57;;
3645;SDS011;1839;48.060;11.662;2022-07-24T06:52:32;30.40;;;13.30;;
3645;SDS011;1839;48.060;11.662;2022-07-24T06:54:59;27.60;;;11.83;;
3645;SDS011;1839;48.060;11.662;2022-07-24T06:57:27;29.43;;;12.10;;
3645;SDS011;1839;48.060;11.662;2022-07-24T06:59:54;28.00;;;12.80;;
3645;SDS011;1839;48.060;11.662;2022-07-24T07:02:22;25.03;;;12.10;;
3645;SDS011;1839;48.060;11.662;2022-07-24T07:04:49;25.60;;;12.03;;
3645;SDS011;1839;48.060;11.662;2022-07-24T07:07:17;27.33;;;11.63;;
3645;SDS011;1839;48.060;11.662;2022-07-24T07:09:44;24.27;;;10.70;;
3645;SDS011;1839;48.060;11.662;2022-07-24T07:12:11;25.80;;;11.30;;
3645;SDS011;1839;48.060;11.662;2022-07-24T07:14:38;23.17;;;9.87;;
3645;SDS011;1839;48.060;11.662;2022-07-24T07:17:05;31.10;;;12.17;;
3645;SDS011;1839;48.060;11.662;2022-07-24T07:19:34;28.83;;;10.60;;
3645;SDS011;1839;48.060;11.662;2022-07-24T07:22:01;23.10;;;10.17;;
3645;SDS011;1839;48.060;11.662;2022-07-24T07:24:28;28.03;;;11.33;;
3645;SDS011;1839;48.060;11.662;2022-07-24T07:26:55;20.37;;;9.27;;
3645;SDS011;1839;48.060;11.662;2022-07-24T07:29:23;22.10;;;9.10;;
3645;SDS011;1839;48.060;11.662;2022-07-24T07:31:50;20.20;;;8.73;;
3645;SDS011;1839;48.060;11.662;2022-07-24T07:34:17;19.07;;;8.80;;
3645;SDS011;1839;48.060;11.662;2022-07-24T07:36:45;18.13;;;8.80;;
3645;SDS011;1839;48.060;11.662;2022-07-24T07:39:13;15.40;;;7.63;;
3645;SDS011;1839;48.060;11.662;2022-07-24T07:41:40;23.60;;;9.87;;
3645;SDS011;1839;48.060;11.662;2022-07-24T07:44:07;19.53;;;8.60;;
3645;SDS011;1839;48.060;11.662;2022-07-24T07:46:34;17.47;;;8.80;;
3645;SDS011;1839;48.060;11.662;2022-07-24T07:49:02;17.70;;;8.70;;
3645;SDS011;1839;48.060;11.662;2022-07-24T07:51:29;19.77;;;8.40;;
3645;SDS011;1839;48.060;11.662;2022-07-24T07:53:57;18.20;;;8.90;;
3645;SDS011;1839;48.060;11.662;2022-07-24T07:56:25;23.13;;;9.30;;
3645;SDS011;1839;48.060;11.662;2022-07-24T07:58:53;19.93;;;8.57;;
3645;SDS011;1839;48.060;11.662;2022-07-24T08:01:20;17.20;;;8.30;;
3645;SDS011;1839;48.060;11.662;2022-07-24T08:03:48;15.87;;;7.73;;
3645;SDS011;1839;48.060;11.662;2022-07-24T08:06:15;16.27;;;7.70;;
3645;SDS011;1839;48.060;11.662;2022-07-24T08:08:42;16.93;;;7.77;;
3645;SDS011;1839;48.060;11.662;2022-07-24T08:11:11;19.43;;;8.47;;
3645;SDS011;1839;48.060;11.662;2022-07-24T08:13:38;24.00;;;7.57;;
3645;SDS011;1839;48.060;11.662;2022-07-24T08:16:05;16.13;;;8.07;;
3645;SDS011;1839;48.060;11.662;2022-07-24T08:18:32;17.17;;;7.83;;
3645;SDS011;1839;48.060;11.662;2022-07-24T08:20:59;17.07;;;8.73;;
3645;SDS011;1839;48.060;11.662;2022-07-24T08:23:27;18.03;;;7.67;;
3645;SDS011;1839;48.060;11.662;2022-07-24T08:25:54;14.63;;;7.70;;
3645;SDS011;1839;48.060;11.662;2022-07-24T08:28:22;19.67;;;9.20;;
3645;SDS011;1839;48.060;11.662;2022-07-24T08:30:50;14.40;;;7.30;;
3645;SDS011;1839;48.060;11.662;2022-07-24T08:33:17;16.43;;;8.10;;
3645;SDS011;1839;48.060;11.662;2022-07-24T08:35:45;16.60;;;8.07;;
3645;SDS011;1839;48.060;11.662;2022-07-24T08:38:12;18.83;;;9.00;;
3645;SDS011;1839;48.060;11.662;2022-07-24T08:40:39;19.03;;;7.77;;
3645;SDS011;1839;48.060;11.662;2022-07-24T08:43:08;16.57;;;8.77;;
3645;SDS011;1839;48.060;11.662;2022-07-24T08:45:37;15.40;;;7.80;;
3645;SDS011;1839;48.060;11.662;2022-07-24T08:48:05;14.90;;;8.27;;
3645;SDS011;1839;48.060;11.662;2022-07-24T08:50:33;14.87;;;7.60;;
3645;SDS011;1839;48.060;11.662;2022-07-24T08:53:00;20.60;;;7.90;;
3645;SDS011;1839;48.060;11.662;2022-07-24T08:55:28;15.97;;;8.00;;
3645;SDS011;1839;48.060;11.662;2022-07-24T08:57:56;15.57;;;8.23;;
3645;SDS011;1839;48.060;11.662;2022-07-24T09:00:23;17.13;;;7.50;;
3645;SDS011;1839;48.060;11.662;2022-07-24T09:02:51;16.23;;;7.40;;
3645;SDS011;1839;48.060;11.662;2022-07-24T09:05:19;13.63;;;7.53;;
3645;SDS011;1839;48.060;11.662;2022-07-24T09:07:46;14.10;;;7.53;;
3645;SDS011;1839;48.060;11.662;2022-07-24T09:10:14;15.90;;;7.70;;
3645;SDS011;1839;48.060;11.662;2022-07-24T09:12:42;16.20;;;7.97;;
3645;SDS011;1839;48.060;11.662;2022-07-24T09:15:11;15.10;;;7.03;;
3645;SDS011;1839;48.060;11.662;2022-07-24T09:17:46;13.77;;;7.30;;
3645;SDS011;1839;48.060;11.662;2022-07-24T09:20:15;14.83;;;7.53;;
3645;SDS011;1839;48.060;11.662;2022-07-24T09:22:42;15.23;;;7.20;;
3645;SDS011;1839;48.060;11.662;2022-07-24T09:25:11;17.77;;;7.43;;
3645;SDS011;1839;48.060;11.662;2022-07-24T09:27:40;15.70;;;7.87;;
3645;SDS011;1839;48.060;11.662;2022-07-24T09:30:08;15.37;;;7.90;;
3645;SDS011;1839;48.060;11.662;2022-07-24T09:32:35;16.70;;;8.30;;
3645;SDS011;1839;48.060;11.662;2022-07-24T09:35:03;16.37;;;8.07;;
3645;SDS011;1839;48.060;11.662;2022-07-24T09:37:32;14.80;;;7.40;;
3645;SDS011;1839;48.060;11.662;2022-07-24T09:40:09;15.57;;;8.63;;
3645;SDS011;1839;48.060;11.662;2022-07-24T09:42:36;15.40;;;7.77;;
3645;SDS011;1839;48.060;11.662;2022-07-24T09:45:07;18.43;;;6.90;;
3645;SDS011;1839;48.060;11.662;2022-07-24T09:47:37;15.27;;;7.70;;
3645;SDS011;1839;48.060;11.662;2022-07-24T09:50:11;21.43;;;7.63;;
3645;SDS011;1839;48.060;11.662;2022-07-24T09:52:40;14.03;;;6.90;;
3645;SDS011;1839;48.060;11.662;2022-07-24T09:55:18;15.50;;;7.87;;
3645;SDS011;1839;48.060;11.662;2022-07-24T09:57:45;14.33;;;7.50;;
3645;SDS011;1839;48.060;11.662;2022-07-24T10:00:14;12.73;;;6.55;;
3645;SDS011;1839;48.060;11.662;2022-07-24T10:02:42;16.48;;;7.13;;
3645;SDS011;1839;48.060;11.662;2022-07-24T10:05:10;15.32;;;7.97;;
3645;SDS011;1839;48.060;11.662;2022-07-24T10:07:39;14.50;;;7.43;;
3645;SDS011;1839;48.060;11.662;2022-07-24T10:10:07;12.75;;;6.95;;
3645;SDS011;1839;48.060;11.662;2022-07-24T10:12:35;17.52;;;7.50;;
3645;SDS011;1839;48.060;11.662;2022-07-24T10:15:03;12.82;;;7.30;;
3645;SDS011;1839;48.060;11.662;2022-07-24T10:17:33;13.95;;;6.60;;
3645;SDS011;1839;48.060;11.662;2022-07-24T10:20:03;19.98;;;7.40;;
3645;SDS011;1839;48.060;11.662;2022-07-24T10:22:33;13.60;;;7.03;;
3645;SDS011;1839;48.060;11.662;2022-07-24T10:25:07;14.57;;;6.70;;
3645;SDS011;1839;48.060;11.662;2022-07-24T10:27:37;13.13;;;7.03;;
3645;SDS011;1839;48.060;11.662;2022-07-24T10:30:08;14.45;;;7.88;;
3645;SDS011;1839;48.060;11.662;2022-07-24T10:32:36;14.27;;;7.25;;
3645;SDS011;1839;48.060;11.662;2022-07-24T10:35:06;12.23;;;6.90;;
3645;SDS011;1839;48.060;11.662;2022-07-24T10:37:38;17.45;;;6.82;;
3645;SDS011;1839;48.060;11.662;2022-07-24T10:40:11;14.93;;;7.47;;
3645;SDS011;1839;48.060;11.662;2022-07-24T10:45:34;13.80;;;6.70;;
3645;SDS011;1839;48.060;11.662;2022-07-24T10:50:59;16.08;;;8.20;;
3645;SDS011;1839;48.060;11.662;2022-07-24T10:53:28;14.98;;;7.35;;
3645;SDS011;1839;48.060;11.662;2022-07-24T10:56:08;15.70;;;7.43;;
3645;SDS011;1839;48.060;11.662;2022-07-24T10:58:50;11.02;;;6.18;;
3645;SDS011;1839;48.060;11.662;2022-07-24T11:01:26;21.10;;;7.30;;
3645;SDS011;1839;48.060;11.662;2022-07-24T11:03:54;18.45;;;7.35;;
3645;SDS011;1839;48.060;11.662;2022-07-24T11:06:37;13.25;;;6.68;;
3645;SDS011;1839;48.060;11.662;2022-07-24T11:09:04;15.60;;;8.07;;
3645;SDS011;1839;48.060;11.662;2022-07-24T11:11:33;13.57;;;6.97;;
3645;SDS011;1839;48.060;11.662;2022-07-24T11:14:06;21.83;;;8.10;;
3645;SDS011;1839;48.060;11.662;2022-07-24T11:16:33;19.20;;;7.27;;
3645;SDS011;1839;48.060;11.662;2022-07-24T11:21:47;16.27;;;7.30;;
3645;SDS011;1839;48.060;11.662;2022-07-24T11:24:15;13.98;;;7.47;;
3645;SDS011;1839;48.060;11.662;2022-07-24T11:26:47;14.40;;;7.63;;
3645;SDS011;1839;48.060;11.662;2022-07-24T11:29:14;11.90;;;6.63;;
3645;SDS011;1839;48.060;11.662;2022-07-24T11:31:41;14.27;;;7.35;;
3645;SDS011;1839;48.060;11.662;2022-07-24T11:34:09;12.88;;;7.00;;
3645;SDS011;1839;48.060;11.662;2022-07-24T11:36:36;12.48;;;6.90;;
3645;SDS011;1839;48.060;11.662;2022-07-24T11:39:06;11.55;;;6.80;;
3645;SDS011;1839;48.060;11.662;2022-07-24T11:41:42;13.82;;;7.57;;
3645;SDS011;1839;48.060;11.662;2022-07-24T11:44:12;10.18;;;6.43;;
3645;SDS011;1839;48.060;11.662;2022-07-24T11:46:40;13.20;;;7.10;;
3645;SDS011;1839;48.060;11.662;2022-07-24T11:49:08;9.13;;;6.13;;
3645;SDS011;1839;48.060;11.662;2022-07-24T11:51:40;8.93;;;5.75;;
3645;SDS011;1839;48.060;11.662;2022-07-24T11:54:08;12.30;;;6.35;;
3645;SDS011;1839;48.060;11.662;2022-07-24T11:56:35;9.73;;;5.82;;
3645;SDS011;1839;48.060;11.662;2022-07-24T11:59:02;9.13;;;5.78;;
3645;SDS011;1839;48.060;11.662;2022-07-24T12:01:31;10.30;;;5.95;;
3645;SDS011;1839;48.060;11.662;2022-07-24T12:03:58;9.25;;;6.07;;
3645;SDS011;1839;48.060;11.662;2022-07-24T12:06:26;9.40;;;6.28;;
3645;SDS011;1839;48.060;11.662;2022-07-24T12:08:56;9.13;;;5.65;;
3645;SDS011;1839;48.060;11.662;2022-07-24T12:11:24;9.00;;;5.70;;
3645;SDS011;1839;48.060;11.662;2022-07-24T12:13:51;8.95;;;5.47;;
3645;SDS011;1839;48.060;11.662;2022-07-24T12:16:24;14.65;;;6.05;;
3645;SDS011;1839;48.060;11.662;2022-07-24T12:19:02;10.10;;;5.80;;
3645;SDS011;1839;48.060;11.662;2022-07-24T12:21:37;12.75;;;6.30;;
3645;SDS011;1839;48.060;11.662;2022-07-24T12:24:05;12.68;;;6.90;;
3645;SDS011;1839;48.060;11.662;2022-07-24T12:26:32;12.93;;;5.75;;
3645;SDS011;1839;48.060;11.662;2022-07-24T12:29:09;7.85;;;5.30;;
3645;SDS011;1839;48.060;11.662;2022-07-24T12:31:36;9.20;;;5.97;;
3645;SDS011;1839;48.060;11.662;2022-07-24T12:34:05;10.93;;;6.53;;
3645;SDS011;1839;48.060;11.662;2022-07-24T12:36:32;8.27;;;5.28;;
3645;SDS011;1839;48.060;11.662;2022-07-24T12:39:00;10.35;;;6.03;;
3645;SDS011;1839;48.060;11.662;2022-07-24T12:41:29;10.65;;;6.45;;
3645;SDS011;1839;48.060;11.662;2022-07-24T12:43:57;17.92;;;5.70;;
3645;SDS011;1839;48.060;11.662;2022-07-24T12:46:29;10.80;;;6.38;;
3645;SDS011;1839;48.060;11.662;2022-07-24T12:48:57;11.00;;;6.00;;
3645;SDS011;1839;48.060;11.662;2022-07-24T12:51:26;9.63;;;6.22;;
3645;SDS011;1839;48.060;11.662;2022-07-24T12:53:53;11.80;;;6.22;;
3645;SDS011;1839;48.060;11.662;2022-07-24T12:56:21;12.45;;;6.38;;
3645;SDS011;1839;48.060;11.662;2022-07-24T12:58:49;9.23;;;5.22;;
3645;SDS011;1839;48.060;11.662;2022-07-24T13:01:16;9.50;;;5.55;;
3645;SDS011;1839;48.060;11.662;2022-07-24T13:03:49;8.15;;;5.55;;
3645;SDS011;1839;48.060;11.662;2022-07-24T13:06:17;10.25;;;5.18;;
3645;SDS011;1839;48.060;11.662;2022-07-24T13:08:45;7.50;;;4.85;;
3645;SDS011;1839;48.060;11.662;2022-07-24T13:11:13;9.23;;;4.88;;
3645;SDS011;1839;48.060;11.662;2022-07-24T13:13:40;8.75;;;5.55;;
3645;SDS011;1839;48.060;11.662;2022-07-24T13:16:07;8.05;;;5.50;;
3645;SDS011;1839;48.060;11.662;2022-07-24T13:18:34;13.15;;;5.40;;
3645;SDS011;1839;48.060;11.662;2022-07-24T13:21:02;10.57;;;5.28;;
3645;SDS011;1839;48.060;11.662;2022-07-24T13:23:29;9.02;;;5.25;;
3645;SDS011;1839;48.060;11.662;2022-07-24T13:25:58;8.68;;;5.60;;
3645;SDS011;1839;48.060;11.662;2022-07-24T13:28:25;10.23;;;5.90;;
3645;SDS011;1839;48.060;11.662;2022-07-24T13:30:52;8.95;;;6.18;;
3645;SDS011;1839;48.060;11.662;2022-07-24T13:33:20;12.57;;;6.28;;
3645;SDS011;1839;48.060;11.662;2022-07-24T13:35:47;10.00;;;6.00;;
3645;SDS011;1839;48.060;11.662;2022-07-24T13:38:14;9.98;;;5.97;;
3645;SDS011;1839;48.060;11.662;2022-07-24T13:40:41;11.13;;;5.85;;
3645;SDS011;1839;48.060;11.662;2022-07-24T13:43:10;7.95;;;5.10;;
3645;SDS011;1839;48.060;11.662;2022-07-24T13:45:37;8.82;;;5.05;;
3645;SDS011;1839;48.060;11.662;2022-07-24T13:48:04;8.23;;;4.68;;
3645;SDS011;1839;48.060;11.662;2022-07-24T13:50:31;8.13;;;4.57;;
3645;SDS011;1839;48.060;11.662;2022-07-24T13:52:59;6.63;;;4.10;;
3645;SDS011;1839;48.060;11.662;2022-07-24T13:55:26;6.68;;;5.13;;
3645;SDS011;1839;48.060;11.662;2022-07-24T13:57:54;6.60;;;4.38;;
3645;SDS011;1839;48.060;11.662;2022-07-24T14:00:22;7.88;;;4.10;;
3645;SDS011;1839;48.060;11.662;2022-07-24T14:02:50;7.38;;;4.72;;
3645;SDS011;1839;48.060;11.662;2022-07-24T14:05:20;5.75;;;4.07;;
3645;SDS011;1839;48.060;11.662;2022-07-24T14:07:47;8.32;;;4.50;;
3645;SDS011;1839;48.060;11.662;2022-07-24T14:10:14;10.30;;;4.85;;
3645;SDS011;1839;48.060;11.662;2022-07-24T14:12:41;6.75;;;4.70;;
3645;SDS011;1839;48.060;11.662;2022-07-24T14:15:09;8.88;;;4.47;;
3645;SDS011;1839;48.060;11.662;2022-07-24T14:17:39;8.43;;;5.22;;
3645;SDS011;1839;48.060;11.662;2022-07-24T14:20:07;12.23;;;5.22;;
3645;SDS011;1839;48.060;11.662;2022-07-24T14:22:34;10.27;;;5.30;;
3645;SDS011;1839;48.060;11.662;2022-07-24T14:25:02;8.23;;;5.95;;
3645;SDS011;1839;48.060;11.662;2022-07-24T14:27:29;14.30;;;5.30;;
3645;SDS011;1839;48.060;11.662;2022-07-24T14:29:56;12.55;;;5.47;;
3645;SDS011;1839;48.060;11.662;2022-07-24T14:32:24;7.40;;;4.80;;
3645;SDS011;1839;48.060;11.662;2022-07-24T14:34:52;8.02;;;4.60;;
3645;SDS011;1839;48.060;11.662;2022-07-24T14:37:20;7.43;;;5.60;;
3645;SDS011;1839;48.060;11.662;2022-07-24T14:39:47;8.30;;;4.53;;
3645;SDS011;1839;48.060;11.662;2022-07-24T14:42:14;8.65;;;5.00;;
3645;SDS011;1839;48.060;11.662;2022-07-24T14:44:41;9.23;;;5.50;;
3645;SDS011;1839;48.060;11.662;2022-07-24T14:47:08;8.85;;;5.07;;
3645;SDS011;1839;48.060;11.662;2022-07-24T14:49:36;8.38;;;4.95;;
3645;SDS011;1839;48.060;11.662;2022-07-24T14:52:04;7.95;;;5.68;;
3645;SDS011;1839;48.060;11.662;2022-07-24T14:54:32;7.07;;;4.50;;
3645;SDS011;1839;48.060;11.662;2022-07-24T14:56:59;7.38;;;4.75;;
3645;SDS011;1839;48.060;11.662;2022-07-24T14:59:26;7.63;;;5.30;;
3645;SDS011;1839;48.060;11.662;2022-07-24T15:01:54;7.35;;;5.07;;
3645;SDS011;1839;48.060;11.662;2022-07-24T15:04:21;7.68;;;4.75;;
3645;SDS011;1839;48.060;11.662;2022-07-24T15:06:48;8.57;;;5.53;;
3645;SDS011;1839;48.060;11.662;2022-07-24T15:09:17;6.65;;;4.82;;
3645;SDS011;1839;48.060;11.662;2022-07-24T15:11:44;8.52;;;4.57;;
3645;SDS011;1839;48.060;11.662;2022-07-24T15:14:11;7.82;;;4.53;;
3645;SDS011;1839;48.060;11.662;2022-07-24T15:16:38;7.75;;;4.47;;
3645;SDS011;1839;48.060;11.662;2022-07-24T15:19:05;9.80;;;5.38;;
3645;SDS011;1839;48.060;11.662;2022-07-24T15:21:33;11.32;;;5.70;;
3645;SDS011;1839;48.060;11.662;2022-07-24T15:24:00;10.23;;;5.78;;
3645;SDS011;1839;48.060;11.662;2022-07-24T15:26:28;10.85;;;5.97;;
3645;SDS011;1839;48.060;11.662;2022-07-24T15:28:55;11.68;;;7.25;;
3645;SDS011;1839;48.060;11.662;2022-07-24T15:31:23;14.18;;;6.82;;
3645;SDS011;1839;48.060;11.662;2022-07-24T15:33:50;12.32;;;6.70;;
3645;SDS011;1839;48.060;11.662;2022-07-24T15:36:17;13.27;;;6.38;;
3645;SDS011;1839;48.060;11.662;2022-07-24T15:38:44;10.27;;;5.75;;
3645;SDS011;1839;48.060;11.662;2022-07-24T15:41:11;10.82;;;5.30;;
3645;SDS011;1839;48.060;11.662;2022-07-24T15:43:40;8.98;;;5.50;;
3645;SDS011;1839;48.060;11.662;2022-07-24T15:46:07;8.48;;;5.93;;
3645;SDS011;1839;48.060;11.662;2022-07-24T15:48:35;7.20;;;4.85;;
3645;SDS011;1839;48.060;11.662;2022-07-24T15:51:02;7.82;;;4.57;;
3645;SDS011;1839;48.060;11.662;2022-07-24T15:53:29;6.93;;;4.75;;
3645;SDS011;1839;48.060;11.662;2022-07-24T15:55:56;8.90;;;5.70;;
3645;SDS011;1839;48.060;11.662;2022-07-24T15:58:24;8.52;;;5.88;;
3645;SDS011;1839;48.060;11.662;2022-07-24T16:00:52;8.90;;;5.68;;
3645;SDS011;1839;48.060;11.662;2022-07-24T16:03:19;10.27;;;5.97;;
3645;SDS011;1839;48.060;11.662;2022-07-24T16:05:47;14.07;;;6.55;;
3645;SDS011;1839;48.060;11.662;2022-07-24T16:08:14;9.90;;;5.80;;
3645;SDS011;1839;48.060;11.662;2022-07-24T16:10:41;12.82;;;6.22;;
3645;SDS011;1839;48.060;11.662;2022-07-24T16:13:08;12.73;;;6.82;;
3645;SDS011;1839;48.060;11.662;2022-07-24T16:15:35;11.45;;;5.97;;
3645;SDS011;1839;48.060;11.662;2022-07-24T16:18:04;13.15;;;6.63;;
3645;SDS011;1839;48.060;11.662;2022-07-24T16:20:31;12.27;;;6.70;;
3645;SDS011;1839;48.060;11.662;2022-07-24T16:22:59;14.50;;;7.47;;
3645;SDS011;1839;48.060;11.662;2022-07-24T16:25:26;15.02;;;7.72;;
3645;SDS011;1839;48.060;11.662;2022-07-24T16:27:53;15.40;;;7.15;;
3645;SDS011;1839;48.060;11.662;2022-07-24T16:30:20;12.07;;;6.60;;
3645;SDS011;1839;48.060;11.662;2022-07-24T16:32:48;12.57;;;6.85;;
3645;SDS011;1839;48.060;11.662;2022-07-24T16:35:16;15.20;;;7.03;;
3645;SDS011;1839;48.060;11.662;2022-07-24T16:37:43;16.75;;;7.32;;
3645;SDS011;1839;48.060;11.662;2022-07-24T16:40:11;14.55;;;7.22;;
3645;SDS011;1839;48.060;11.662;2022-07-24T16:42:38;12.13;;;6.70;;
3645;SDS011;1839;48.060;11.662;2022-07-24T16:45:05;15.02;;;7.35;;
3645;SDS011;1839;48.060;11.662;2022-07-24T16:47:33;15.80;;;7.23;;
3645;SDS011;1839;48.060;11.662;2022-07-24T16:50:00;19.77;;;8.40;;
3645;SDS011;1839;48.060;11.662;2022-07-24T16:52:29;14.40;;;7.30;;
3645;SDS011;1839;48.060;11.662;2022-07-24T16:54:56;15.13;;;7.50;;
3645;SDS011;1839;48.060;11.662;2022-07-24T16:57:23;17.43;;;7.63;;
3645;SDS011;1839;48.060;11.662;2022-07-24T16:59:50;17.57;;;7.40;;
3645;SDS011;1839;48.060;11.662;2022-07-24T17:02:17;16.07;;;7.93;;
3645;SDS011;1839;48.060;11.662;2022-07-24T17:04:45;18.60;;;8.67;;
3645;SDS011;1839;48.060;11.662;2022-07-24T17:07:12;14.73;;;7.37;;
3645;SDS011;1839;48.060;11.662;2022-07-24T17:09:40;18.97;;;8.50;;
3645;SDS011;1839;48.060;11.662;2022-07-24T17:12:07;18.37;;;8.90;;
3645;SDS011;1839;48.060;11.662;2022-07-24T17:14:36;14.67;;;7.50;;
3645;SDS011;1839;48.060;11.662;2022-07-24T17:17:03;18.33;;;8.03;;
3645;SDS011;1839;48.060;11.662;2022-07-24T17:19:30;12.03;;;6.80;;
3645;SDS011;1839;48.060;11.662;2022-07-24T17:21:59;12.50;;;6.73;;
3645;SDS011;1839;48.060;11.662;2022-07-24T17:24:26;17.13;;;7.10;;
3645;SDS011;1839;48.060;11.662;2022-07-24T17:26:55;18.30;;;6.80;;
3645;SDS011;1839;48.060;11.662;2022-07-24T17:29:22;17.43;;;6.57;;
3645;SDS011;1839;48.060;11.662;2022-07-24T17:31:49;14.17;;;6.90;;
3645;SDS011;1839;48.060;11.662;2022-07-24T17:34:16;15.53;;;8.03;;
3645;SDS011;1839;48.060;11.662;2022-07-24T17:36:44;16.37;;;7.80;;
3645;SDS011;1839;48.060;11.662;2022-07-24T17:39:11;15.77;;;7.87;;
3645;SDS011;1839;48.060;11.662;2022-07-24T17:41:38;16.50;;;7.87;;
3645;SDS011;1839;48.060;11.662;2022-07-24T17:44:06;15.87;;;7.67;;
3645;SDS011;1839;48.060;11.662;2022-07-24T17:46:34;15.60;;;8.13;;
3645;SDS011;1839;48.060;11.662;2022-07-24T17:49:01;14.87;;;6.90;;
3645;SDS011;1839;48.060;11.662;2022-07-24T17:51:28;22.40;;;7.90;;
3645;SDS011;1839;48.060;11.662;2022-07-24T17:53:55;16.17;;;7.77;;
3645;SDS011;1839;48.060;11.662;2022-07-24T17:56:22;15.00;;;7.40;;
3645;SDS011;1839;48.060;11.662;2022-07-24T17:58:50;16.60;;;7.93;;
3645;SDS011;1839;48.060;11.662;2022-07-24T18:01:18;19.37;;;8.47;;
3645;SDS011;1839;48.060;11.662;2022-07-24T18:03:45;18.03;;;8.10;;
3645;SDS011;1839;48.060;11.662;2022-07-24T18:06:13;15.70;;;7.67;;
3645;SDS011;1839;48.060;11.662;2022-07-24T18:08:40;21.90;;;8.00;;
3645;SDS011;1839;48.060;11.662;2022-07-24T18:11:08;19.33;;;8.93;;
3645;SDS011;1839;48.060;11.662;2022-07-24T18:13:35;15.30;;;8.10;;
3645;SDS011;1839;48.060;11.662;2022-07-24T18:16:02;15.17;;;7.23;;
3645;SDS011;1839;48.060;11.662;2022-07-24T18:18:31;16.07;;;7.70;;
3645;SDS011;1839;48.060;11.662;2022-07-24T18:20:58;18.57;;;8.37;;
3645;SDS011;1839;48.060;11.662;2022-07-24T18:23:25;19.60;;;8.93;;
3645;SDS011;1839;48.060;11.662;2022-07-24T18:25:52;15.87;;;7.73;;
3645;SDS011;1839;48.060;11.662;2022-07-24T18:28:19;15.70;;;6.87;;
3645;SDS011;1839;48.060;11.662;2022-07-24T18:30:47;15.07;;;8.20;;
3645;SDS011;1839;48.060;11.662;2022-07-24T18:33:14;24.23;;;8.43;;
3645;SDS011;1839;48.060;11.662;2022-07-24T18:35:42;15.80;;;8.00;;
3645;SDS011;1839;48.060;11.662;2022-07-24T18:38:10;15.33;;;7.00;;
3645;SDS011;1839;48.060;11.662;2022-07-24T18:40:37;16.07;;;8.10;;
3645;SDS011;1839;48.060;11.662;2022-07-24T18:43:04;20.37;;;10.40;;
3645;SDS011;1839;48.060;11.662;2022-07-24T18:45:32;20.17;;;8.80;;
3645;SDS011;1839;48.060;11.662;2022-07-24T18:47:59;18.80;;;7.83;;
3645;SDS011;1839;48.060;11.662;2022-07-24T18:50:26;22.40;;;9.07;;
3645;SDS011;1839;48.060;11.662;2022-07-24T18:52:55;21.13;;;8.50;;
3645;SDS011;1839;48.060;11.662;2022-07-24T18:55:22;17.27;;;8.90;;
3645;SDS011;1839;48.060;11.662;2022-07-24T18:57:49;17.83;;;8.47;;
3645;SDS011;1839;48.060;11.662;2022-07-24T19:00:16;18.37;;;8.47;;
3645;SDS011;1839;48.060;11.662;2022-07-24T19:02:44;18.97;;;8.73;;
3645;SDS011;1839;48.060;11.662;2022-07-24T19:05:11;17.97;;;8.73;;
3645;SDS011;1839;48.060;11.662;2022-07-24T19:07:38;18.20;;;8.53;;
3645;SDS011;1839;48.060;11.662;2022-07-24T19:10:07;20.60;;;9.50;;
3645;SDS011;1839;48.060;11.662;2022-07-24T19:12:34;19.00;;;9.20;;
3645;SDS011;1839;48.060;11.662;2022-07-24T19:15:02;17.77;;;8.70;;
3645;SDS011;1839;48.060;11.662;2022-07-24T19:17:29;18.70;;;8.00;;
3645;SDS011;1839;48.060;11.662;2022-07-24T19:19:56;17.23;;;8.27;;
3645;SDS011;1839;48.060;11.662;2022-07-24T19:22:24;18.47;;;8.30;;
3645;SDS011;1839;48.060;11.662;2022-07-24T19:24:51;18.67;;;7.70;;
3645;SDS011;1839;48.060;11.662;2022-07-24T19:27:19;19.50;;;9.03;;
3645;SDS011;1839;48.060;11.662;2022-07-24T19:29:46;20.33;;;9.90;;
3645;SDS011;1839;48.060;11.662;2022-07-24T19:32:14;26.10;;;8.30;;
3645;SDS011;1839;48.060;11.662;2022-07-24T19:34:41;22.00;;;9.37;;
3645;SDS011;1839;48.060;11.662;2022-07-24T19:37:08;22.37;;;9.50;;
3645;SDS011;1839;48.060;11.662;2022-07-24T19:39:36;20.00;;;9.03;;
3645;SDS011;1839;48.060;11.662;2022-07-24T19:42:03;21.20;;;8.77;;
3645;SDS011;1839;48.060;11.662;2022-07-24T19:44:32;20.57;;;9.97;;
3645;SDS011;1839;48.060;11.662;2022-07-24T19:47:00;20.20;;;8.80;;
3645;SDS011;1839;48.060;11.662;2022-07-24T19:49:27;18.83;;;8.60;;
3645;SDS011;1839;48.060;11.662;2022-07-24T19:51:55;18.20;;;8.40;;
3645;SDS011;1839;48.060;11.662;2022-07-24T19:54:23;19.63;;;8.60;;
3645;SDS011;1839;48.060;11.662;2022-07-24T19:56:50;18.50;;;7.83;;
3645;SDS011;1839;48.060;11.662;2022-07-24T19:59:17;19.47;;;8.53;;